createdAt,value
2022-12-16T00:01:36.581Z,28.80
2022-12-16T00:04:05.965Z,27.83
2022-12-16T00:06:35.035Z,24.63
2022-12-16T00:09:03.083Z,25.07
2022-12-16T00:11:32.342Z,24.10
2022-12-16T00:14:00.473Z,25.40
2022-12-16T00:16:28.715Z,24.93
2022-12-16T00:18:56.630Z,23.83
2022-12-16T00:21:29.764Z,24.30
2022-12-16T00:23:58.043Z,24.60
2022-12-16T00:26:26.180Z,22.77
2022-12-16T00:28:54.024Z,26.57
2022-12-16T00:31:22.871Z,28.23
2022-12-16T00:33:52.877Z,28.30
2022-12-16T00:36:20.771Z,30.70
2022-12-16T00:38:51.891Z,30.60
2022-12-16T00:41:19.968Z,30.93
2022-12-16T00:43:48.033Z,30.77
2022-12-16T00:46:16.105Z,32.47
2022-12-16T00:48:44.019Z,32.27
2022-12-16T00:51:11.838Z,31.57
2022-12-16T00:53:39.702Z,31.27
2022-12-16T00:56:11.301Z,30.70
2022-12-16T00:58:39.335Z,30.73
2022-12-16T01:01:07.400Z,31.30
2022-12-16T01:03:36.020Z,31.10
2022-12-16T01:06:09.342Z,31.77
2022-12-16T01:08:37.118Z,30.63
2022-12-16T01:11:04.966Z,29.77
2022-12-16T01:13:35.051Z,30.17
2022-12-16T01:16:03.836Z,27.90
2022-12-16T01:18:31.855Z,27.90
2022-12-16T01:21:04.098Z,30.30
2022-12-16T01:23:32.280Z,29.43
2022-12-16T01:26:02.204Z,29.67
2022-12-16T01:28:31.120Z,29.13
2022-12-16T01:31:02.507Z,28.50
2022-12-16T01:33:31.219Z,27.97
2022-12-16T01:36:00.880Z,27.60
2022-12-16T01:38:28.834Z,27.93
2022-12-16T01:40:56.762Z,27.60
2022-12-16T01:43:28.142Z,28.10
2022-12-16T01:46:03.046Z,26.90
2022-12-16T01:48:41.504Z,27.40
2022-12-16T01:51:12.971Z,27.70
2022-12-16T01:53:44.448Z,26.63
2022-12-16T01:56:16.476Z,24.60
2022-12-16T01:58:46.276Z,24.57
2022-12-16T02:01:17.658Z,23.60
2022-12-16T02:03:45.900Z,22.23
2022-12-16T02:06:13.687Z,21.50
2022-12-16T02:08:41.516Z,22.43
2022-12-16T02:11:22.958Z,21.47
2022-12-16T02:14:05.700Z,21.60
2022-12-16T02:16:42.779Z,21.33
2022-12-16T02:19:28.239Z,23.53
2022-12-16T02:22:09.215Z,24.20
2022-12-16T02:25:12.726Z,22.27
2022-12-16T02:27:59.605Z,21.70
2022-12-16T02:31:04.230Z,19.03
2022-12-16T02:34:05.082Z,18.17
2022-12-16T02:36:45.134Z,17.60
2022-12-16T02:39:16.314Z,17.70
2022-12-16T02:41:50.091Z,18.20
2022-12-16T02:44:18.739Z,17.70
2022-12-16T02:46:56.200Z,16.17
2022-12-16T02:49:57.788Z,15.93
2022-12-16T02:52:29.705Z,16.60
2022-12-16T02:55:00.994Z,17.03
2022-12-16T02:58:00.902Z,15.40
2022-12-16T03:00:34.375Z,14.40
2022-12-16T03:03:09.913Z,13.80
2022-12-16T03:05:41.427Z,15.27
2022-12-16T03:08:14.970Z,13.67
2022-12-16T03:10:47.296Z,13.27
2022-12-16T03:13:18.356Z,13.30
2022-12-16T03:15:49.151Z,12.90
2022-12-16T03:18:20.867Z,13.17
2022-12-16T03:20:53.302Z,13.50
2022-12-16T03:23:27.802Z,12.33
2022-12-16T03:26:00.870Z,12.50
2022-12-16T03:28:39.784Z,11.30
2022-12-16T03:31:15.349Z,12.40
2022-12-16T03:33:50.634Z,11.77
2022-12-16T03:36:23.140Z,11.53
2022-12-16T03:38:52.523Z,11.13
2022-12-16T03:41:23.201Z,11.03
2022-12-16T03:43:52.508Z,9.67
2022-12-16T03:46:20.501Z,10.20
2022-12-16T03:48:51.772Z,10.30
2022-12-16T03:51:20.709Z,9.93
2022-12-16T03:53:48.612Z,9.60
2022-12-16T03:56:16.896Z,10.10
2022-12-16T03:58:47.019Z,8.20
2022-12-16T04:01:16.050Z,8.40
2022-12-16T04:03:43.939Z,8.40
2022-12-16T04:06:13.260Z,7.60
2022-12-16T04:08:41.099Z,8.23
2022-12-16T04:11:38.529Z,7.30
2022-12-16T04:14:24.026Z,6.80
2022-12-16T04:17:09.607Z,6.47
2022-12-16T04:19:56.894Z,7.40
2022-12-16T04:22:46.893Z,6.77
2022-12-16T04:25:17.752Z,7.30
2022-12-16T04:27:46.824Z,7.57
2022-12-16T04:30:21.835Z,7.43
2022-12-16T04:33:22.759Z,6.87
2022-12-16T04:36:08.365Z,6.90
2022-12-16T04:38:54.832Z,6.53
2022-12-16T04:41:40.111Z,7.83
2022-12-16T04:44:25.959Z,7.33
2022-12-16T04:47:22.762Z,6.93
2022-12-16T04:50:07.970Z,6.90
2022-12-16T04:52:53.306Z,8.00
2022-12-16T04:55:39.928Z,7.57
2022-12-16T04:58:25.195Z,7.87
2022-12-16T05:01:10.627Z,7.20
2022-12-16T05:03:56.028Z,7.60
2022-12-16T05:06:41.419Z,7.77
2022-12-16T05:09:26.897Z,7.80
2022-12-16T05:12:13.376Z,8.10
2022-12-16T05:14:59.134Z,7.40
2022-12-16T05:17:44.418Z,7.33
2022-12-16T05:20:29.691Z,7.03
2022-12-16T05:23:15.686Z,7.70
2022-12-16T05:26:01.365Z,7.10
2022-12-16T05:28:47.936Z,7.80
2022-12-16T05:31:33.450Z,10.53
2022-12-16T05:34:18.840Z,7.67
2022-12-16T05:37:04.335Z,7.40
2022-12-16T05:39:49.681Z,6.20
2022-12-16T05:42:35.126Z,7.20
2022-12-16T05:45:22.251Z,7.03
2022-12-16T05:48:07.886Z,6.90
2022-12-16T05:50:53.275Z,7.00
2022-12-16T05:53:41.307Z,8.70
2022-12-16T05:56:26.370Z,6.77
2022-12-16T05:59:11.678Z,6.93
2022-12-16T06:01:58.177Z,7.00
2022-12-16T06:04:43.707Z,9.17
2022-12-16T06:07:29.039Z,10.13
2022-12-16T06:10:14.354Z,10.50
2022-12-16T06:12:59.685Z,10.50
2022-12-16T06:15:45.069Z,12.77
2022-12-16T06:18:31.685Z,10.67
2022-12-16T06:21:16.923Z,11.60
2022-12-16T06:24:02.082Z,11.47
2022-12-16T06:26:47.376Z,9.30
2022-12-16T06:29:32.441Z,8.03
2022-12-16T06:32:18.170Z,10.00
2022-12-16T06:35:05.080Z,8.63
2022-12-16T06:37:50.312Z,8.40
2022-12-16T06:40:35.748Z,7.03
2022-12-16T06:43:21.111Z,7.47
2022-12-16T06:46:06.928Z,6.00
2022-12-16T06:48:52.384Z,7.50
2022-12-16T06:51:38.982Z,6.80
2022-12-16T06:54:24.490Z,8.20
2022-12-16T06:57:09.628Z,7.20
2022-12-16T06:59:54.879Z,7.97
2022-12-16T07:02:40.267Z,8.13
2022-12-16T07:05:26.308Z,9.50
2022-12-16T07:08:13.067Z,13.80
2022-12-16T07:11:09.203Z,17.70
2022-12-16T07:14:01.223Z,13.00
2022-12-16T07:16:46.864Z,11.53
2022-12-16T07:19:32.127Z,8.23
2022-12-16T07:22:17.366Z,6.40
2022-12-16T07:25:03.970Z,6.73
2022-12-16T07:27:49.449Z,6.13
2022-12-16T07:30:34.819Z,6.17
2022-12-16T07:33:20.102Z,12.57
2022-12-16T07:36:05.325Z,7.63
2022-12-16T07:38:50.542Z,7.60
2022-12-16T07:41:37.203Z,6.73
2022-12-16T07:44:23.059Z,5.67
2022-12-16T07:47:08.445Z,5.47
2022-12-16T07:50:05.141Z,6.40
2022-12-16T07:52:50.620Z,4.97
2022-12-16T07:55:36.427Z,4.83
2022-12-16T07:58:23.041Z,4.70
2022-12-16T08:01:09.819Z,5.10
2022-12-16T08:03:54.780Z,6.20
2022-12-16T08:06:44.128Z,8.30
2022-12-16T08:09:32.958Z,12.10
2022-12-16T08:12:18.388Z,12.27
2022-12-16T08:15:16.603Z,9.70
2022-12-16T08:18:07.877Z,9.90
2022-12-16T08:21:00.619Z,9.63
2022-12-16T08:23:45.960Z,10.00
2022-12-16T08:26:31.857Z,6.03
2022-12-16T08:29:43.234Z,8.33
2022-12-16T08:32:24.393Z,9.10
2022-12-16T08:35:10.055Z,8.30
2022-12-16T08:37:55.296Z,9.50
2022-12-16T08:40:40.747Z,13.20
2022-12-16T08:43:26.019Z,13.77
2022-12-16T08:46:14.040Z,11.20
2022-12-16T08:49:01.149Z,8.87
2022-12-16T08:51:46.910Z,8.17
2022-12-16T08:54:32.753Z,6.80
2022-12-16T08:57:18.344Z,7.90
2022-12-16T09:00:04.018Z,11.00
2022-12-16T09:03:04.428Z,11.93
2022-12-16T09:05:51.481Z,13.60
2022-12-16T09:08:37.318Z,13.43
2022-12-16T09:11:26.852Z,11.80
2022-12-16T09:14:13.244Z,10.50
2022-12-16T09:16:58.638Z,10.47
2022-12-16T09:19:44.121Z,10.70
2022-12-16T09:22:31.045Z,11.37
2022-12-16T09:25:16.262Z,12.07
2022-12-16T09:28:01.714Z,11.73
2022-12-16T09:30:47.047Z,11.90
2022-12-16T09:33:32.796Z,11.90
2022-12-16T09:36:18.206Z,11.60
2022-12-16T09:39:04.764Z,11.40
2022-12-16T09:42:00.283Z,11.77
2022-12-16T09:45:01.371Z,11.10
2022-12-16T09:47:55.047Z,11.07
2022-12-16T09:50:43.711Z,11.03
2022-12-16T09:53:31.948Z,11.33
2022-12-16T09:56:23.733Z,13.60
2022-12-16T09:59:15.728Z,12.73
2022-12-16T10:02:02.092Z,12.53
2022-12-16T10:04:47.805Z,13.37
2022-12-16T10:07:36.663Z,12.47
2022-12-16T10:10:35.569Z,13.30
2022-12-16T10:13:31.956Z,13.47
2022-12-16T10:16:26.762Z,12.37
2022-12-16T10:19:20.226Z,14.07
2022-12-16T10:22:12.139Z,11.70
2022-12-16T10:25:09.638Z,12.30
2022-12-16T10:28:02.045Z,14.17
2022-12-16T10:30:50.942Z,17.73
2022-12-16T10:33:38.625Z,15.73
2022-12-16T10:36:30.561Z,16.27
2022-12-16T10:39:20.018Z,14.00
2022-12-16T10:42:11.012Z,12.57
2022-12-16T10:45:11.071Z,14.10
2022-12-16T10:47:57.661Z,10.67
2022-12-16T10:50:42.953Z,11.33
2022-12-16T10:53:33.767Z,13.37
2022-12-16T10:56:32.886Z,16.10
2022-12-16T10:59:23.574Z,14.00
2022-12-16T11:02:16.762Z,13.60
2022-12-16T11:05:04.351Z,12.00
2022-12-16T11:07:55.301Z,13.00
2022-12-16T11:10:46.867Z,13.03
2022-12-16T11:13:40.547Z,13.77
2022-12-16T11:16:29.793Z,12.70
2022-12-16T11:19:15.912Z,14.17
2022-12-16T11:22:03.047Z,15.43
2022-12-16T11:24:48.815Z,14.00
2022-12-16T11:27:46.450Z,15.70
2022-12-16T11:30:38.592Z,13.47
2022-12-16T11:33:31.223Z,12.60
2022-12-16T11:36:25.942Z,12.13
2022-12-16T11:39:13.072Z,9.27
2022-12-16T11:42:00.395Z,7.97
2022-12-16T11:44:51.872Z,9.17
2022-12-16T11:47:50.967Z,9.23
2022-12-16T11:50:39.349Z,8.87
2022-12-16T11:53:40.334Z,8.77
2022-12-16T11:56:33.662Z,8.23
2022-12-16T11:59:23.215Z,8.07
2022-12-16T12:02:15.192Z,7.80
2022-12-16T12:05:00.470Z,7.73
2022-12-16T12:07:52.383Z,8.70
2022-12-16T12:11:08.619Z,9.83
2022-12-16T12:14:18.012Z,10.43
2022-12-16T12:17:14.484Z,9.43
2022-12-16T12:20:10.467Z,9.77
2022-12-16T12:22:53.464Z,10.53
2022-12-16T12:25:46.666Z,10.20
2022-12-16T12:28:42.098Z,10.07
2022-12-16T12:31:38.936Z,12.20
2022-12-16T12:34:34.261Z,12.77
2022-12-16T12:37:27.059Z,17.00
2022-12-16T12:40:19.290Z,15.20
2022-12-16T12:43:09.219Z,13.10
2022-12-16T12:46:11.287Z,12.90
2022-12-16T12:49:06.500Z,12.90
2022-12-16T12:52:00.583Z,12.80
2022-12-16T12:54:55.177Z,12.77
2022-12-16T12:57:44.752Z,12.43
2022-12-16T13:00:35.760Z,15.03
2022-12-16T13:03:26.746Z,12.30
2022-12-16T13:06:14.471Z,11.67
2022-12-16T13:09:13.488Z,14.43
2022-12-16T13:12:45.916Z,11.83
2022-12-16T13:15:39.187Z,10.60
2022-12-16T13:18:49.404Z,9.20
2022-12-16T13:22:07.303Z,10.00
2022-12-16T13:25:02.757Z,10.67
2022-12-16T13:28:03.224Z,9.67
2022-12-16T13:30:53.024Z,9.97
2022-12-16T13:33:45.353Z,10.63
2022-12-16T13:36:33.683Z,10.23
2022-12-16T13:39:39.352Z,10.83
2022-12-16T13:42:24.798Z,9.30
2022-12-16T13:45:15.576Z,9.50
2022-12-16T13:48:20.176Z,10.43
2022-12-16T13:51:07.672Z,9.00
2022-12-16T13:53:58.587Z,10.97
2022-12-16T13:56:52.048Z,10.30
2022-12-16T13:59:40.105Z,9.97
2022-12-16T14:02:42.649Z,9.50
2022-12-16T14:05:36.905Z,10.60
2022-12-16T14:08:24.899Z,12.60
2022-12-16T14:11:16.877Z,10.23
2022-12-16T14:14:09.852Z,10.10
2022-12-16T14:17:04.905Z,11.63
2022-12-16T14:19:58.871Z,11.27
2022-12-16T14:23:04.598Z,11.00
2022-12-16T14:25:50.389Z,10.97
2022-12-16T14:28:44.593Z,10.13
2022-12-16T14:31:35.675Z,12.50
2022-12-16T14:34:22.398Z,10.67
2022-12-16T14:37:08.466Z,9.90
2022-12-16T14:39:58.048Z,10.60
2022-12-16T14:42:44.755Z,10.30
2022-12-16T14:45:43.419Z,9.40
2022-12-16T14:48:49.598Z,11.47
2022-12-16T14:51:42.706Z,12.37
2022-12-16T14:54:44.123Z,11.00
2022-12-16T14:57:33.404Z,13.33
2022-12-16T15:00:30.722Z,11.27
2022-12-16T15:03:19.669Z,9.90
2022-12-16T15:06:07.488Z,10.53
2022-12-16T15:08:56.904Z,9.80
2022-12-16T15:11:43.259Z,11.23
2022-12-16T15:14:33.435Z,11.53
2022-12-16T15:17:19.384Z,12.47
2022-12-16T15:20:08.323Z,13.87
2022-12-16T15:22:55.235Z,12.57
2022-12-16T15:25:42.592Z,15.10
2022-12-16T15:28:42.944Z,13.53
2022-12-16T15:31:33.316Z,12.37
2022-12-16T15:34:45.618Z,12.17
2022-12-16T15:37:37.149Z,11.60
2022-12-16T15:40:37.517Z,12.17
2022-12-16T15:43:34.641Z,11.90
2022-12-16T15:46:20.692Z,12.83
2022-12-16T15:49:09.693Z,11.60
2022-12-16T15:52:03.494Z,11.73
2022-12-16T15:54:49.324Z,12.57
2022-12-16T15:57:49.184Z,12.53
2022-12-16T16:00:41.719Z,12.17
2022-12-16T16:03:40.536Z,13.30
2022-12-16T16:06:34.948Z,13.47
2022-12-16T16:09:20.808Z,14.17
2022-12-16T16:12:06.036Z,15.50
2022-12-16T16:14:53.165Z,18.03
2022-12-16T16:17:40.577Z,14.77
2022-12-16T16:20:31.954Z,14.67
2022-12-16T16:23:18.311Z,38.83
2022-12-16T16:26:04.382Z,37.83
2022-12-16T16:28:49.852Z,20.73
2022-12-16T16:31:37.152Z,18.43
2022-12-16T16:34:23.127Z,17.67
2022-12-16T16:37:12.682Z,14.77
2022-12-16T16:39:58.936Z,16.33
2022-12-16T16:42:44.810Z,15.80
2022-12-16T16:45:30.683Z,15.13
2022-12-16T16:48:24.950Z,16.60
2022-12-16T16:51:14.349Z,16.87
2022-12-16T16:54:00.123Z,15.80
2022-12-16T16:56:47.548Z,20.13
2022-12-16T16:59:33.334Z,23.10
2022-12-16T17:02:19.311Z,21.47
2022-12-16T17:05:06.552Z,20.57
2022-12-16T17:07:53.907Z,22.90
2022-12-16T17:10:39.507Z,23.53
2022-12-16T17:13:24.836Z,23.00
2022-12-16T17:16:09.388Z,24.37
2022-12-16T17:18:54.796Z,24.67
2022-12-16T17:21:41.425Z,22.70
2022-12-16T17:24:26.855Z,24.30
2022-12-16T17:27:12.196Z,21.37
2022-12-16T17:29:57.461Z,23.10
2022-12-16T17:32:42.713Z,24.23
2022-12-16T17:35:29.797Z,23.50
2022-12-16T17:38:18.613Z,22.50
2022-12-16T17:41:10.086Z,23.03
2022-12-16T17:43:55.417Z,24.03
2022-12-16T17:46:50.860Z,24.40
2022-12-16T17:49:38.516Z,24.80
2022-12-16T17:52:23.804Z,25.80
2022-12-16T17:55:10.347Z,22.80
2022-12-16T17:57:55.745Z,26.30
2022-12-16T18:00:40.183Z,24.30
2022-12-16T18:03:25.952Z,24.80
2022-12-16T18:06:14.877Z,24.90
2022-12-16T18:08:56.711Z,25.00
2022-12-16T18:11:43.528Z,26.70
2022-12-16T18:14:28.823Z,27.40
2022-12-16T18:17:14.239Z,25.10
2022-12-16T18:19:59.587Z,28.17
2022-12-16T18:22:44.804Z,28.80
2022-12-16T18:25:30.225Z,28.80
2022-12-16T18:28:16.696Z,27.30
2022-12-16T18:31:02.087Z,28.87
2022-12-16T18:33:48.052Z,32.33
2022-12-16T18:36:33.183Z,29.47
2022-12-16T18:39:18.655Z,29.77
2022-12-16T18:42:05.343Z,28.40
2022-12-16T18:44:57.597Z,29.10
2022-12-16T18:47:46.341Z,38.53
2022-12-16T18:50:37.558Z,35.10
2022-12-16T18:53:24.254Z,32.27
2022-12-16T18:56:18.262Z,33.13
2022-12-16T18:59:03.451Z,32.83
2022-12-16T19:01:50.151Z,32.13
2022-12-16T19:04:35.834Z,31.27
2022-12-16T19:07:21.071Z,31.63
2022-12-16T19:10:06.405Z,31.83
2022-12-16T19:12:52.274Z,37.13
2022-12-16T19:15:41.227Z,51.70
2022-12-16T19:18:30.210Z,61.73
2022-12-16T19:21:15.907Z,77.63
2022-12-16T19:24:01.182Z,88.80
2022-12-16T19:26:45.704Z,43.80
2022-12-16T19:29:31.196Z,33.37
2022-12-16T19:32:16.516Z,31.90
2022-12-16T19:35:03.192Z,33.77
2022-12-16T19:37:48.404Z,33.70
2022-12-16T19:40:34.312Z,34.70
2022-12-16T19:43:19.734Z,32.90
2022-12-16T19:46:11.053Z,34.53
2022-12-16T19:48:56.446Z,33.67
2022-12-16T19:51:43.574Z,31.97
2022-12-16T19:54:28.719Z,34.20
2022-12-16T19:57:17.017Z,39.60
2022-12-16T20:00:02.398Z,47.50
2022-12-16T20:02:57.458Z,40.73
2022-12-16T20:05:43.155Z,36.93
2022-12-16T20:08:31.193Z,34.60
2022-12-16T20:11:16.514Z,34.37
2022-12-16T20:14:01.780Z,33.93
2022-12-16T20:16:47.105Z,34.80
2022-12-16T20:19:32.602Z,32.80
2022-12-16T20:22:17.799Z,34.57
2022-12-16T20:25:04.373Z,35.30
2022-12-16T20:27:49.710Z,36.87
2022-12-16T20:30:35.667Z,34.10
2022-12-16T20:33:21.047Z,33.13
2022-12-16T20:36:14.089Z,37.03
2022-12-16T20:38:59.326Z,33.37
2022-12-16T20:41:45.895Z,31.20
2022-12-16T20:44:31.755Z,32.27
2022-12-16T20:47:17.057Z,33.37
2022-12-16T20:50:03.011Z,32.90
2022-12-16T20:52:51.460Z,32.47
2022-12-16T20:55:37.302Z,35.40
2022-12-16T20:58:24.356Z,31.97
2022-12-16T21:01:10.692Z,31.40
2022-12-16T21:03:57.136Z,33.17
2022-12-16T21:06:42.433Z,33.30
2022-12-16T21:09:28.211Z,36.93
2022-12-16T21:12:13.456Z,34.20
2022-12-16T21:15:00.317Z,32.00
2022-12-16T21:17:45.508Z,34.10
2022-12-16T21:20:31.109Z,33.07
2022-12-16T21:23:18.561Z,34.47
2022-12-16T21:26:03.864Z,41.10
2022-12-16T21:28:49.159Z,36.77
2022-12-16T21:31:35.950Z,32.07
2022-12-16T21:34:21.332Z,32.43
2022-12-16T21:37:08.237Z,32.70
2022-12-16T21:39:54.554Z,31.97
2022-12-16T21:42:44.039Z,30.70
2022-12-16T21:45:44.782Z,31.93
2022-12-16T21:48:31.163Z,33.00
2022-12-16T21:51:31.248Z,33.13
2022-12-16T21:54:16.708Z,32.27
2022-12-16T21:57:02.170Z,34.70
2022-12-16T21:59:47.896Z,34.77
2022-12-16T22:02:32.305Z,31.30
2022-12-16T22:05:19.207Z,33.30
2022-12-16T22:08:04.963Z,33.07
2022-12-16T22:10:50.394Z,32.90
2022-12-16T22:13:36.612Z,35.93
2022-12-16T22:16:22.787Z,32.97
2022-12-16T22:19:08.203Z,35.60
2022-12-16T22:21:54.814Z,34.70
2022-12-16T22:24:41.505Z,40.40
2022-12-16T22:27:26.714Z,33.77
2022-12-16T22:30:11.876Z,35.57
2022-12-16T22:32:57.312Z,33.57
2022-12-16T22:35:42.802Z,35.20
2022-12-16T22:38:29.333Z,33.17
2022-12-16T22:41:15.238Z,35.80
2022-12-16T22:44:00.978Z,34.90
2022-12-16T22:46:46.844Z,34.00
2022-12-16T22:49:32.735Z,36.87
2022-12-16T22:52:18.467Z,36.30
2022-12-16T22:55:05.102Z,34.40
2022-12-16T22:57:50.970Z,37.23
2022-12-16T23:00:39.090Z,37.73
2022-12-16T23:03:24.446Z,35.63
2022-12-16T23:06:09.669Z,36.50
2022-12-16T23:08:55.000Z,37.73
2022-12-16T23:11:50.657Z,39.03
2022-12-16T23:14:42.583Z,38.07
2022-12-16T23:17:28.792Z,36.17
2022-12-16T23:20:14.063Z,35.43
2022-12-16T23:22:59.222Z,36.00
2022-12-16T23:25:45.152Z,35.33
2022-12-16T23:28:31.619Z,34.63
2022-12-16T23:31:17.073Z,32.67
2022-12-16T23:34:02.761Z,30.43
2022-12-16T23:36:47.956Z,26.57
2022-12-16T23:39:33.365Z,24.23
2022-12-16T23:42:18.511Z,25.77
2022-12-16T23:45:05.229Z,26.67
2022-12-16T23:47:50.491Z,25.57
2022-12-16T23:50:36.386Z,27.43
2022-12-16T23:53:22.780Z,27.53
2022-12-16T23:56:07.931Z,25.60
2022-12-16T23:59:01.487Z,26.00
